sensor_id;sensor_type;location;lat;lon;timestamp;pressure;altitude;pressure_sealevel;temperature;humidity
75460;BME280;64039;53.060;9.342;2023-05-07T00:01:37;101644.53;;;9.11;100.00
75460;BME280;64039;53.060;9.342;2023-05-07T00:04:03;101645.78;;;9.21;100.00
75460;BME280;64039;53.060;9.342;2023-05-07T00:06:29;101644.28;;;9.26;100.00
75460;BME280;64039;53.060;9.342;2023-05-07T00:08:56;101639.31;;;9.32;100.00
75460;BME280;64039;53.060;9.342;2023-05-07T00:11:22;101651.66;;;9.38;100.00
75460;BME280;64039;53.060;9.342;2023-05-07T00:13:47;101650.97;;;9.21;100.00
75460;BME280;64039;53.060;9.342;2023-05-07T00:16:13;101644.13;;;9.23;100.00
75460;BME280;64039;53.060;9.342;2023-05-07T00:18:39;101644.50;;;9.32;100.00
75460;BME280;64039;53.060;9.342;2023-05-07T00:21:04;101639.34;;;9.11;100.00
75460;BME280;64039;53.060;9.342;2023-05-07T00:23:30;101648.84;;;9.10;100.00
75460;BME280;64039;53.060;9.342;2023-05-07T00:25:55;101644.91;;;9.20;100.00
75460;BME280;64039;53.060;9.342;2023-05-07T00:28:21;101640.53;;;9.19;100.00
75460;BME280;64039;53.060;9.342;2023-05-07T00:30:46;101638.94;;;9.23;100.00
75460;BME280;64039;53.060;9.342;2023-05-07T00:33:12;101637.53;;;9.31;100.00
75460;BME280;64039;53.060;9.342;2023-05-07T00:35:37;101637.34;;;9.26;100.00
75460;BME280;64039;53.060;9.342;2023-05-07T00:38:03;101644.09;;;9.21;100.00
75460;BME280;64039;53.060;9.342;2023-05-07T00:40:28;101641.97;;;9.34;100.00
75460;BME280;64039;53.060;9.342;2023-05-07T00:42:54;101643.72;;;9.35;100.00
75460;BME280;64039;53.060;9.342;2023-05-07T00:45:28;101635.44;;;9.43;100.00
75460;BME280;64039;53.060;9.342;2023-05-07T00:47:55;101637.75;;;9.37;100.00
75460;BME280;64039;53.060;9.342;2023-05-07T00:50:22;101641.78;;;9.29;100.00
75460;BME280;64039;53.060;9.342;2023-05-07T00:52:48;101640.59;;;9.21;100.00
75460;BME280;64039;53.060;9.342;2023-05-07T00:55:14;101640.09;;;9.30;100.00
75460;BME280;64039;53.060;9.342;2023-05-07T00:57:41;101638.13;;;9.24;100.00
75460;BME280;64039;53.060;9.342;2023-05-07T01:00:07;101643.72;;;9.12;100.00
75460;BME280;64039;53.060;9.342;2023-05-07T01:02:41;101644.59;;;9.12;100.00
75460;BME280;64039;53.060;9.342;2023-05-07T01:05:09;101644.47;;;9.09;100.00
75460;BME280;64039;53.060;9.342;2023-05-07T01:07:35;101645.53;;;8.93;100.00
75460;BME280;64039;53.060;9.342;2023-05-07T01:10:02;101629.16;;;8.94;100.00
75460;BME280;64039;53.060;9.342;2023-05-07T01:12:28;101637.75;;;8.93;100.00
75460;BME280;64039;53.060;9.342;2023-05-07T01:14:54;101636.69;;;9.09;100.00
75460;BME280;64039;53.060;9.342;2023-05-07T01:17:20;101639.97;;;9.05;100.00
75460;BME280;64039;53.060;9.342;2023-05-07T01:19:45;101635.50;;;9.01;100.00
75460;BME280;64039;53.060;9.342;2023-05-07T01:22:11;101639.28;;;8.88;100.00
75460;BME280;64039;53.060;9.342;2023-05-07T01:24:37;101643.72;;;8.91;100.00
75460;BME280;64039;53.060;9.342;2023-05-07T01:27:03;101644.88;;;8.76;100.00
75460;BME280;64039;53.060;9.342;2023-05-07T01:29:29;101648.84;;;8.89;100.00
75460;BME280;64039;53.060;9.342;2023-05-07T01:31:57;101650.88;;;8.96;100.00
75460;BME280;64039;53.060;9.342;2023-05-07T01:34:25;101646.31;;;9.12;100.00
75460;BME280;64039;53.060;9.342;2023-05-07T01:36:53;101649.72;;;9.11;100.00
75460;BME280;64039;53.060;9.342;2023-05-07T01:39:18;101644.91;;;8.99;100.00
75460;BME280;64039;53.060;9.342;2023-05-07T01:41:44;101652.00;;;9.03;100.00
75460;BME280;64039;53.060;9.342;2023-05-07T01:44:12;101642.88;;;9.13;100.00
75460;BME280;64039;53.060;9.342;2023-05-07T01:46:38;101640.50;;;8.96;100.00
75460;BME280;64039;53.060;9.342;2023-05-07T01:49:04;101642.56;;;9.05;100.00
75460;BME280;64039;53.060;9.342;2023-05-07T01:51:29;101640.34;;;8.93;100.00
75460;BME280;64039;53.060;9.342;2023-05-07T01:53:55;101644.00;;;8.77;100.00
75460;BME280;64039;53.060;9.342;2023-05-07T01:56:21;101644.16;;;8.80;100.00
75460;BME280;64039;53.060;9.342;2023-05-07T01:58:47;101651.94;;;8.80;100.00
75460;BME280;64039;53.060;9.342;2023-05-07T02:01:13;101654.34;;;8.76;100.00
75460;BME280;64039;53.060;9.342;2023-05-07T02:03:39;101646.81;;;8.82;100.00
75460;BME280;64039;53.060;9.342;2023-05-07T02:06:05;101644.09;;;8.79;100.00
75460;BME280;64039;53.060;9.342;2023-05-07T02:08:30;101649.28;;;8.79;100.00
75460;BME280;64039;53.060;9.342;2023-05-07T02:10:56;101645.22;;;8.86;100.00
75460;BME280;64039;53.060;9.342;2023-05-07T02:13:21;101644.41;;;8.87;100.00
75460;BME280;64039;53.060;9.342;2023-05-07T02:15:48;101642.13;;;8.94;100.00
75460;BME280;64039;53.060;9.342;2023-05-07T02:18:16;101645.06;;;9.02;100.00
75460;BME280;64039;53.060;9.342;2023-05-07T02:20:42;101644.69;;;8.93;100.00
75460;BME280;64039;53.060;9.342;2023-05-07T02:23:07;101639.91;;;8.83;100.00
75460;BME280;64039;53.060;9.342;2023-05-07T02:25:33;101651.19;;;8.83;100.00
75460;BME280;64039;53.060;9.342;2023-05-07T02:27:58;101651.19;;;8.83;100.00
75460;BME280;64039;53.060;9.342;2023-05-07T02:30:24;101643.75;;;8.71;100.00
75460;BME280;64039;53.060;9.342;2023-05-07T02:32:50;101648.38;;;8.57;100.00
75460;BME280;64039;53.060;9.342;2023-05-07T02:35:16;101646.16;;;8.67;100.00
75460;BME280;64039;53.060;9.342;2023-05-07T02:37:41;101646.34;;;8.71;100.00
75460;BME280;64039;53.060;9.342;2023-05-07T02:40:07;101640.41;;;8.74;100.00
75460;BME280;64039;53.060;9.342;2023-05-07T02:42:33;101648.31;;;8.77;100.00
75460;BME280;64039;53.060;9.342;2023-05-07T02:44:58;101648.69;;;8.65;100.00
75460;BME280;64039;53.060;9.342;2023-05-07T02:47:24;101651.56;;;8.71;100.00
75460;BME280;64039;53.060;9.342;2023-05-07T02:49:53;101657.16;;;8.61;100.00
75460;BME280;64039;53.060;9.342;2023-05-07T02:52:18;101659.13;;;8.67;100.00
75460;BME280;64039;53.060;9.342;2023-05-07T02:54:43;101654.84;;;8.67;100.00
75460;BME280;64039;53.060;9.342;2023-05-07T02:57:09;101657.69;;;8.73;100.00
75460;BME280;64039;53.060;9.342;2023-05-07T02:59:34;101653.00;;;8.86;100.00
75460;BME280;64039;53.060;9.342;2023-05-07T03:02:00;101650.06;;;8.76;100.00
75460;BME280;64039;53.060;9.342;2023-05-07T03:04:25;101652.06;;;8.62;100.00
75460;BME280;64039;53.060;9.342;2023-05-07T03:06:51;101645.72;;;8.77;100.00
75460;BME280;64039;53.060;9.342;2023-05-07T03:09:16;101643.00;;;8.74;100.00
75460;BME280;64039;53.060;9.342;2023-05-07T03:11:42;101640.97;;;8.67;100.00
75460;BME280;64039;53.060;9.342;2023-05-07T03:14:07;101646.06;;;8.63;100.00
75460;BME280;64039;53.060;9.342;2023-05-07T03:16:33;101644.69;;;8.52;100.00
75460;BME280;64039;53.060;9.342;2023-05-07T03:18:58;101647.75;;;8.43;100.00
75460;BME280;64039;53.060;9.342;2023-05-07T03:21:24;101650.69;;;8.51;100.00
75460;BME280;64039;53.060;9.342;2023-05-07T03:23:49;101644.84;;;8.55;100.00
75460;BME280;64039;53.060;9.342;2023-05-07T03:26:15;101642.25;;;8.55;100.00
75460;BME280;64039;53.060;9.342;2023-05-07T03:28:40;101652.81;;;8.60;100.00
75460;BME280;64039;53.060;9.342;2023-05-07T03:31:05;101658.75;;;8.57;100.00
75460;BME280;64039;53.060;9.342;2023-05-07T03:33:34;101641.06;;;8.68;100.00
75460;BME280;64039;53.060;9.342;2023-05-07T03:36:00;101645.53;;;8.72;100.00
75460;BME280;64039;53.060;9.342;2023-05-07T03:38:26;101647.69;;;8.61;100.00
75460;BME280;64039;53.060;9.342;2023-05-07T03:40:51;101641.16;;;8.71;100.00
75460;BME280;64039;53.060;9.342;2023-05-07T03:43:17;101639.28;;;8.67;100.00
75460;BME280;64039;53.060;9.342;2023-05-07T03:45:42;101648.56;;;8.62;100.00
75460;BME280;64039;53.060;9.342;2023-05-07T03:48:08;101646.31;;;8.70;100.00
75460;BME280;64039;53.060;9.342;2023-05-07T03:50:33;101644.00;;;8.77;100.00
75460;BME280;64039;53.060;9.342;2023-05-07T03:52:59;101649.69;;;8.88;100.00
75460;BME280;64039;53.060;9.342;2023-05-07T03:55:24;101647.19;;;8.91;100.00
75460;BME280;64039;53.060;9.342;2023-05-07T03:57:50;101643.47;;;8.85;100.00
75460;BME280;64039;53.060;9.342;2023-05-07T04:00:16;101655.16;;;8.96;100.00
75460;BME280;64039;53.060;9.342;2023-05-07T04:02:41;101654.91;;;8.90;100.00
75460;BME280;64039;53.060;9.342;2023-05-07T04:05:07;101657.38;;;8.87;100.00
75460;BME280;64039;53.060;9.342;2023-05-07T04:07:33;101656.69;;;8.91;100.00
75460;BME280;64039;53.060;9.342;2023-05-07T04:09:58;101647.81;;;8.86;100.00
75460;BME280;64039;53.060;9.342;2023-05-07T04:12:23;101649.19;;;8.77;100.00
75460;BME280;64039;53.060;9.342;2023-05-07T04:14:49;101657.91;;;8.78;100.00
75460;BME280;64039;53.060;9.342;2023-05-07T04:17:15;101654.28;;;8.74;100.00
75460;BME280;64039;53.060;9.342;2023-05-07T04:19:40;101658.19;;;8.86;100.00
75460;BME280;64039;53.060;9.342;2023-05-07T04:22:10;101664.63;;;8.94;100.00
75460;BME280;64039;53.060;9.342;2023-05-07T04:24:36;101662.72;;;8.90;100.00
75460;BME280;64039;53.060;9.342;2023-05-07T04:27:01;101669.53;;;8.88;100.00
75460;BME280;64039;53.060;9.342;2023-05-07T04:29:27;101666.94;;;8.88;100.00
75460;BME280;64039;53.060;9.342;2023-05-07T04:31:53;101668.97;;;8.95;100.00
75460;BME280;64039;53.060;9.342;2023-05-07T04:34:20;101668.97;;;8.95;100.00
75460;BME280;64039;53.060;9.342;2023-05-07T04:36:46;101671.94;;;8.83;100.00
75460;BME280;64039;53.060;9.342;2023-05-07T04:39:13;101680.63;;;8.84;100.00
75460;BME280;64039;53.060;9.342;2023-05-07T04:41:38;101684.09;;;8.84;100.00
75460;BME280;64039;53.060;9.342;2023-05-07T04:44:04;101675.44;;;8.84;100.00
75460;BME280;64039;53.060;9.342;2023-05-07T04:46:30;101679.31;;;8.93;100.00
75460;BME280;64039;53.060;9.342;2023-05-07T04:48:55;101677.53;;;8.92;100.00
75460;BME280;64039;53.060;9.342;2023-05-07T04:51:21;101682.81;;;8.94;100.00
75460;BME280;64039;53.060;9.342;2023-05-07T04:53:46;101690.66;;;8.95;100.00
75460;BME280;64039;53.060;9.342;2023-05-07T04:56:12;101686.31;;;8.96;100.00
75460;BME280;64039;53.060;9.342;2023-05-07T04:58:37;101693.81;;;8.88;100.00
75460;BME280;64039;53.060;9.342;2023-05-07T05:01:03;101686.06;;;8.90;100.00
75460;BME280;64039;53.060;9.342;2023-05-07T05:03:28;101689.81;;;8.96;100.00
75460;BME280;64039;53.060;9.342;2023-05-07T05:05:55;101699.75;;;9.07;100.00
75460;BME280;64039;53.060;9.342;2023-05-07T05:08:20;101695.59;;;9.10;100.00
75460;BME280;64039;53.060;9.342;2023-05-07T05:10:46;101693.88;;;9.11;100.00
75460;BME280;64039;53.060;9.342;2023-05-07T05:13:14;101687.63;;;9.06;100.00
75460;BME280;64039;53.060;9.342;2023-05-07T05:15:39;101697.25;;;9.08;100.00
75460;BME280;64039;53.060;9.342;2023-05-07T05:18:05;101698.34;;;9.15;100.00
75460;BME280;64039;53.060;9.342;2023-05-07T05:20:30;101696.28;;;9.27;100.00
75460;BME280;64039;53.060;9.342;2023-05-07T05:22:56;101702.94;;;9.21;100.00
75460;BME280;64039;53.060;9.342;2023-05-07T05:25:21;101699.13;;;9.12;100.00
75460;BME280;64039;53.060;9.342;2023-05-07T05:27:47;101703.94;;;9.03;100.00
75460;BME280;64039;53.060;9.342;2023-05-07T05:30:12;101701.63;;;9.09;100.00
75460;BME280;64039;53.060;9.342;2023-05-07T05:32:38;101701.84;;;9.16;100.00
75460;BME280;64039;53.060;9.342;2023-05-07T05:35:04;101698.75;;;9.24;100.00
75460;BME280;64039;53.060;9.342;2023-05-07T05:37:29;101700.47;;;9.24;100.00
75460;BME280;64039;53.060;9.342;2023-05-07T05:39:56;101703.38;;;9.32;100.00
75460;BME280;64039;53.060;9.342;2023-05-07T05:42:22;101708.50;;;9.30;100.00
75460;BME280;64039;53.060;9.342;2023-05-07T05:44:47;101705.78;;;9.48;100.00
75460;BME280;64039;53.060;9.342;2023-05-07T05:47:13;101707.78;;;9.55;100.00
75460;BME280;64039;53.060;9.342;2023-05-07T05:49:38;101704.28;;;9.55;100.00
75460;BME280;64039;53.060;9.342;2023-05-07T05:52:04;101715.50;;;9.54;100.00
75460;BME280;64039;53.060;9.342;2023-05-07T05:54:30;101714.44;;;9.49;100.00
75460;BME280;64039;53.060;9.342;2023-05-07T05:56:55;101716.22;;;9.50;100.00
75460;BME280;64039;53.060;9.342;2023-05-07T05:59:21;101715.31;;;9.49;100.00
75460;BME280;64039;53.060;9.342;2023-05-07T06:01:46;101725.25;;;9.59;100.00
75460;BME280;64039;53.060;9.342;2023-05-07T06:04:12;101712.34;;;9.61;100.00
75460;BME280;64039;53.060;9.342;2023-05-07T06:06:37;101721.47;;;9.51;100.00
75460;BME280;64039;53.060;9.342;2023-05-07T06:09:03;101715.59;;;9.55;100.00
75460;BME280;64039;53.060;9.342;2023-05-07T06:11:28;101710.38;;;9.55;100.00
75460;BME280;64039;53.060;9.342;2023-05-07T06:13:53;101718.81;;;9.50;100.00
75460;BME280;64039;53.060;9.342;2023-05-07T06:16:19;101726.81;;;9.54;100.00
75460;BME280;64039;53.060;9.342;2023-05-07T06:18:44;101726.28;;;9.63;100.00
75460;BME280;64039;53.060;9.342;2023-05-07T06:21:13;101727.59;;;9.74;100.00
75460;BME280;64039;53.060;9.342;2023-05-07T06:23:38;101720.44;;;9.69;100.00
75460;BME280;64039;53.060;9.342;2023-05-07T06:26:06;101726.81;;;9.77;100.00
75460;BME280;64039;53.060;9.342;2023-05-07T06:28:32;101727.28;;;9.67;100.00
75460;BME280;64039;53.060;9.342;2023-05-07T06:31:17;101720.06;;;9.82;100.00
75460;BME280;64039;53.060;9.342;2023-05-07T06:33:46;101715.50;;;9.98;100.00
75460;BME280;64039;53.060;9.342;2023-05-07T06:36:12;101717.50;;;10.05;100.00
75460;BME280;64039;53.060;9.342;2023-05-07T06:38:38;101722.25;;;10.17;100.00
75460;BME280;64039;53.060;9.342;2023-05-07T06:41:05;101719.84;;;10.21;100.00
75460;BME280;64039;53.060;9.342;2023-05-07T06:43:31;101728.13;;;10.11;100.00
75460;BME280;64039;53.060;9.342;2023-05-07T06:45:56;101714.94;;;10.06;100.00
75460;BME280;64039;53.060;9.342;2023-05-07T06:48:22;101716.13;;;9.92;100.00
75460;BME280;64039;53.060;9.342;2023-05-07T06:50:47;101720.88;;;10.02;100.00
75460;BME280;64039;53.060;9.342;2023-05-07T06:53:13;101723.03;;;10.14;100.00
75460;BME280;64039;53.060;9.342;2023-05-07T06:55:38;101731.38;;;10.28;100.00
75460;BME280;64039;53.060;9.342;2023-05-07T06:58:04;101724.72;;;10.36;100.00
75460;BME280;64039;53.060;9.342;2023-05-07T07:00:29;101723.16;;;10.40;100.00
75460;BME280;64039;53.060;9.342;2023-05-07T07:02:56;101722.88;;;10.34;100.00
75460;BME280;64039;53.060;9.342;2023-05-07T07:05:21;101722.47;;;10.23;100.00
75460;BME280;64039;53.060;9.342;2023-05-07T07:07:47;101726.09;;;10.27;100.00
75460;BME280;64039;53.060;9.342;2023-05-07T07:10:24;101723.56;;;10.28;100.00
75460;BME280;64039;53.060;9.342;2023-05-07T07:12:50;101722.25;;;10.40;100.00
75460;BME280;64039;53.060;9.342;2023-05-07T07:15:15;101719.69;;;10.41;100.00
75460;BME280;64039;53.060;9.342;2023-05-07T07:17:41;101729.81;;;10.33;100.00
75460;BME280;64039;53.060;9.342;2023-05-07T07:20:07;101728.25;;;10.61;100.00
75460;BME280;64039;53.060;9.342;2023-05-07T07:22:33;101720.69;;;10.69;100.00
75460;BME280;64039;53.060;9.342;2023-05-07T07:24:58;101737.94;;;10.65;100.00
75460;BME280;64039;53.060;9.342;2023-05-07T07:27:24;101736.16;;;10.64;100.00
75460;BME280;64039;53.060;9.342;2023-05-07T07:29:49;101737.75;;;10.61;100.00
75460;BME280;64039;53.060;9.342;2023-05-07T07:32:15;101735.31;;;10.65;100.00
75460;BME280;64039;53.060;9.342;2023-05-07T07:34:40;101735.94;;;10.58;100.00
75460;BME280;64039;53.060;9.342;2023-05-07T07:37:06;101739.69;;;10.66;100.00
75460;BME280;64039;53.060;9.342;2023-05-07T07:39:32;101735.94;;;10.58;100.00
75460;BME280;64039;53.060;9.342;2023-05-07T07:41:58;101745.56;;;10.61;100.00
75460;BME280;64039;53.060;9.342;2023-05-07T07:44:23;101740.66;;;10.68;100.00
75460;BME280;64039;53.060;9.342;2023-05-07T07:46:49;101743.91;;;10.63;100.00
75460;BME280;64039;53.060;9.342;2023-05-07T07:49:15;101742.13;;;10.86;100.00
75460;BME280;64039;53.060;9.342;2023-05-07T07:51:40;101748.88;;;10.81;100.00
75460;BME280;64039;53.060;9.342;2023-05-07T07:54:06;101748.25;;;10.88;100.00
75460;BME280;64039;53.060;9.342;2023-05-07T07:56:34;101742.19;;;10.88;100.00
75460;BME280;64039;53.060;9.342;2023-05-07T07:58:59;101754.75;;;10.99;100.00
75460;BME280;64039;53.060;9.342;2023-05-07T08:01:25;101755.06;;;11.09;100.00
75460;BME280;64039;53.060;9.342;2023-05-07T08:03:51;101754.16;;;11.08;100.00
75460;BME280;64039;53.060;9.342;2023-05-07T08:06:16;101759.91;;;11.24;100.00
75460;BME280;64039;53.060;9.342;2023-05-07T08:08:42;101752.69;;;11.16;100.00
75460;BME280;64039;53.060;9.342;2023-05-07T08:11:07;101749.50;;;11.24;99.79
75460;BME280;64039;53.060;9.342;2023-05-07T08:13:33;101758.69;;;11.40;100.00
75460;BME280;64039;53.060;9.342;2023-05-07T08:15:58;101757.88;;;11.42;99.00
75460;BME280;64039;53.060;9.342;2023-05-07T08:18:25;101754.16;;;11.34;99.65
75460;BME280;64039;53.060;9.342;2023-05-07T08:20:50;101758.75;;;11.41;98.83
75460;BME280;64039;53.060;9.342;2023-05-07T08:23:16;101758.47;;;11.59;98.43
75460;BME280;64039;53.060;9.342;2023-05-07T08:25:41;101765.63;;;11.67;96.92
75460;BME280;64039;53.060;9.342;2023-05-07T08:28:08;101765.94;;;11.48;97.60
75460;BME280;64039;53.060;9.342;2023-05-07T08:30:33;101766.38;;;11.62;98.01
75460;BME280;64039;53.060;9.342;2023-05-07T08:33:00;101764.66;;;11.63;98.34
75460;BME280;64039;53.060;9.342;2023-05-07T08:35:26;101766.03;;;11.79;97.61
75460;BME280;64039;53.060;9.342;2023-05-07T08:37:52;101760.81;;;11.79;97.05
75460;BME280;64039;53.060;9.342;2023-05-07T08:40:18;101770.53;;;11.85;96.47
75460;BME280;64039;53.060;9.342;2023-05-07T08:42:44;101776.06;;;11.67;96.15
75460;BME280;64039;53.060;9.342;2023-05-07T08:45:10;101779.13;;;11.53;98.07
75460;BME280;64039;53.060;9.342;2023-05-07T08:47:43;101775.56;;;11.51;97.30
75460;BME280;64039;53.060;9.342;2023-05-07T08:50:12;101776.56;;;11.55;96.89
75460;BME280;64039;53.060;9.342;2023-05-07T08:52:41;101776.75;;;11.61;97.54
75460;BME280;64039;53.060;9.342;2023-05-07T08:55:08;101787.63;;;11.75;97.60
75460;BME280;64039;53.060;9.342;2023-05-07T08:57:34;101787.09;;;11.85;97.27
75460;BME280;64039;53.060;9.342;2023-05-07T08:59:59;101787.38;;;11.67;99.04
75460;BME280;64039;53.060;9.342;2023-05-07T09:02:25;101775.59;;;11.80;98.23
75460;BME280;64039;53.060;9.342;2023-05-07T09:04:50;101780.06;;;11.83;95.32
75460;BME280;64039;53.060;9.342;2023-05-07T09:07:16;101773.22;;;11.86;96.40
75460;BME280;64039;53.060;9.342;2023-05-07T09:09:44;101771.38;;;11.84;97.13
75460;BME280;64039;53.060;9.342;2023-05-07T09:12:09;101770.69;;;11.89;96.38
75460;BME280;64039;53.060;9.342;2023-05-07T09:14:35;101780.84;;;12.07;95.93
75460;BME280;64039;53.060;9.342;2023-05-07T09:17:00;101772.78;;;12.00;95.90
75460;BME280;64039;53.060;9.342;2023-05-07T09:19:27;101780.47;;;11.96;94.89
75460;BME280;64039;53.060;9.342;2023-05-07T09:22:02;101776.41;;;12.05;93.33
75460;BME280;64039;53.060;9.342;2023-05-07T09:24:28;101775.19;;;12.22;94.56
75460;BME280;64039;53.060;9.342;2023-05-07T09:26:59;101785.75;;;12.27;93.33
75460;BME280;64039;53.060;9.342;2023-05-07T09:29:25;101769.91;;;12.19;93.30
75460;BME280;64039;53.060;9.342;2023-05-07T09:31:51;101789.94;;;12.51;92.88
75460;BME280;64039;53.060;9.342;2023-05-07T09:34:16;101781.72;;;12.67;92.49
75460;BME280;64039;53.060;9.342;2023-05-07T09:36:42;101782.59;;;12.68;91.56
75460;BME280;64039;53.060;9.342;2023-05-07T09:39:07;101790.19;;;12.60;88.76
75460;BME280;64039;53.060;9.342;2023-05-07T09:41:33;101785.34;;;12.72;89.61
75460;BME280;64039;53.060;9.342;2023-05-07T09:44:08;101782.84;;;12.77;89.89
75460;BME280;64039;53.060;9.342;2023-05-07T09:46:36;101789.22;;;12.87;91.13
75460;BME280;64039;53.060;9.342;2023-05-07T09:49:02;101780.75;;;12.96;90.77
75460;BME280;64039;53.060;9.342;2023-05-07T09:51:34;101782.81;;;13.08;90.99
75460;BME280;64039;53.060;9.342;2023-05-07T09:54:03;101781.41;;;13.22;90.16
75460;BME280;64039;53.060;9.342;2023-05-07T09:56:30;101778.00;;;13.25;90.05
75460;BME280;64039;53.060;9.342;2023-05-07T09:58:59;101774.19;;;13.45;87.71
75460;BME280;64039;53.060;9.342;2023-05-07T10:01:25;101781.88;;;13.39;86.69
75460;BME280;64039;53.060;9.342;2023-05-07T10:03:53;101778.28;;;13.02;87.46
75460;BME280;64039;53.060;9.342;2023-05-07T10:06:22;101780.09;;;13.04;89.61
75460;BME280;64039;53.060;9.342;2023-05-07T10:08:48;101779.88;;;13.30;88.59
75460;BME280;64039;53.060;9.342;2023-05-07T10:11:13;101780.41;;;13.50;88.12
75460;BME280;64039;53.060;9.342;2023-05-07T10:13:41;101778.47;;;13.10;85.37
75460;BME280;64039;53.060;9.342;2023-05-07T10:16:06;101771.56;;;13.12;86.90
75460;BME280;64039;53.060;9.342;2023-05-07T10:18:33;101784.03;;;13.22;89.59
75460;BME280;64039;53.060;9.342;2023-05-07T10:21:19;101777.47;;;13.38;90.07
75460;BME280;64039;53.060;9.342;2023-05-07T10:23:49;101775.09;;;13.47;86.13
75460;BME280;64039;53.060;9.342;2023-05-07T10:26:15;101778.06;;;13.61;85.90
75460;BME280;64039;53.060;9.342;2023-05-07T10:28:45;101771.38;;;13.74;84.46
75460;BME280;64039;53.060;9.342;2023-05-07T10:33:59;101776.63;;;13.39;86.97
75460;BME280;64039;53.060;9.342;2023-05-07T10:36:26;101782.78;;;13.40;86.77
75460;BME280;64039;53.060;9.342;2023-05-07T10:38:53;101785.50;;;13.44;87.28
75460;BME280;64039;53.060;9.342;2023-05-07T10:41:19;101777.31;;;13.32;87.04
75460;BME280;64039;53.060;9.342;2023-05-07T10:43:46;101783.31;;;13.28;87.87
75460;BME280;64039;53.060;9.342;2023-05-07T10:46:22;101784.59;;;13.44;88.42
75460;BME280;64039;53.060;9.342;2023-05-07T10:51:30;101789.19;;;13.52;86.50
75460;BME280;64039;53.060;9.342;2023-05-07T10:56:41;101787.63;;;13.59;86.64
75460;BME280;64039;53.060;9.342;2023-05-07T11:02:00;101795.19;;;13.85;84.25
75460;BME280;64039;53.060;9.342;2023-05-07T11:04:31;101789.34;;;13.60;83.40
75460;BME280;64039;53.060;9.342;2023-05-07T11:15:07;101780.81;;;14.06;83.03
75460;BME280;64039;53.060;9.342;2023-05-07T11:17:33;101783.09;;;14.30;82.01
75460;BME280;64039;53.060;9.342;2023-05-07T11:20:01;101783.31;;;14.39;79.40
75460;BME280;64039;53.060;9.342;2023-05-07T11:25:05;101773.41;;;14.27;80.79
75460;BME280;64039;53.060;9.342;2023-05-07T11:27:31;101774.47;;;14.36;81.04
75460;BME280;64039;53.060;9.342;2023-05-07T11:29:57;101772.41;;;14.62;81.05
75460;BME280;64039;53.060;9.342;2023-05-07T11:32:31;101777.22;;;14.85;79.85
75460;BME280;64039;53.060;9.342;2023-05-07T11:34:59;101781.41;;;15.24;79.03
75460;BME280;64039;53.060;9.342;2023-05-07T11:37:26;101776.63;;;15.00;80.05
75460;BME280;64039;53.060;9.342;2023-05-07T11:40:06;101769.09;;;15.18;78.10
75460;BME280;64039;53.060;9.342;2023-05-07T11:42:33;101767.09;;;15.05;76.69
75460;BME280;64039;53.060;9.342;2023-05-07T11:45:00;101774.16;;;15.61;78.73
75460;BME280;64039;53.060;9.342;2023-05-07T11:47:25;101764.59;;;15.63;76.04
75460;BME280;64039;53.060;9.342;2023-05-07T11:49:54;101763.03;;;15.78;75.69
75460;BME280;64039;53.060;9.342;2023-05-07T11:52:22;101778.13;;;15.88;72.82
75460;BME280;64039;53.060;9.342;2023-05-07T11:54:56;101774.31;;;15.72;74.28
75460;BME280;64039;53.060;9.342;2023-05-07T11:57:23;101770.31;;;15.93;74.40
75460;BME280;64039;53.060;9.342;2023-05-07T11:59:55;101771.16;;;15.93;72.92
75460;BME280;64039;53.060;9.342;2023-05-07T12:02:21;101776.03;;;15.70;73.86
75460;BME280;64039;53.060;9.342;2023-05-07T12:04:47;101775.84;;;15.56;71.74
75460;BME280;64039;53.060;9.342;2023-05-07T12:07:13;101782.91;;;15.62;75.77
75460;BME280;64039;53.060;9.342;2023-05-07T12:09:40;101777.84;;;15.72;73.27
75460;BME280;64039;53.060;9.342;2023-05-07T12:12:06;101788.56;;;15.85;74.87
75460;BME280;64039;53.060;9.342;2023-05-07T12:14:32;101771.16;;;15.90;71.21
75460;BME280;64039;53.060;9.342;2023-05-07T12:17:00;101771.31;;;16.04;70.76
75460;BME280;64039;53.060;9.342;2023-05-07T12:19:29;101774.25;;;16.27;72.06
75460;BME280;64039;53.060;9.342;2023-05-07T12:21:55;101763.81;;;16.32;70.26
75460;BME280;64039;53.060;9.342;2023-05-07T12:24:21;101768.59;;;15.96;70.72
75460;BME280;64039;53.060;9.342;2023-05-07T12:26:47;101762.56;;;16.03;71.99
75460;BME280;64039;53.060;9.342;2023-05-07T12:29:13;101772.16;;;16.01;71.47
75460;BME280;64039;53.060;9.342;2023-05-07T12:31:43;101772.34;;;16.14;69.72
75460;BME280;64039;53.060;9.342;2023-05-07T12:34:11;101777.00;;;16.35;72.43
75460;BME280;64039;53.060;9.342;2023-05-07T12:36:40;101774.25;;;16.24;68.77
75460;BME280;64039;53.060;9.342;2023-05-07T12:39:06;101773.38;;;16.27;68.83
75460;BME280;64039;53.060;9.342;2023-05-07T12:41:53;101783.84;;;16.25;69.78
75460;BME280;64039;53.060;9.342;2023-05-07T12:44:22;101776.47;;;15.96;67.82
75460;BME280;64039;53.060;9.342;2023-05-07T12:46:49;101778.31;;;16.02;69.44
75460;BME280;64039;53.060;9.342;2023-05-07T12:49:14;101778.97;;;15.87;72.60
75460;BME280;64039;53.060;9.342;2023-05-07T12:51:40;101780.50;;;15.74;71.42
75460;BME280;64039;53.060;9.342;2023-05-07T12:54:05;101776.31;;;15.85;72.61
75460;BME280;64039;53.060;9.342;2023-05-07T12:56:31;101786.13;;;15.97;71.55
75460;BME280;64039;53.060;9.342;2023-05-07T12:58:57;101787.44;;;16.30;72.46
75460;BME280;64039;53.060;9.342;2023-05-07T13:01:29;101778.53;;;16.21;68.89
75460;BME280;64039;53.060;9.342;2023-05-07T13:03:54;101782.72;;;16.05;69.66
75460;BME280;64039;53.060;9.342;2023-05-07T13:06:20;101784.63;;;16.15;68.97